Albion, Illinois
Current Conditions -  °F | °C
As of 5:15 AM on Thursday 18 Dec 2014 (Local Time) from KFWC Reporting Station
Overcast Overcast  
Wind Chill: 28°   Ceiling: 7000
Heat Index: 28°   Visibility: 10mi
Dew Point: 24°   Wind: 3mph
Humidity: 86%   Direction: 20°NNE
Pressure: 30.27"   Gusts: NA
Location:  38.38°N, 88.06°W
Report Text: KFWC 181115Z AUTO 02003KT 10SM SCT012 BKN070 OVC095 M02/M04 A3027 RMK AO1 T10221043
Loading
Personal Weather Stations






























Interactive Weather Map New forecast layout! Learn more

10-Day Weather Forecast

Advertisements
Track Severe Weather on mobile